VEBN Airport Information

Runway Information
Airport Frequencies
Airport Navaids
Airport Weather Information & NOTAM
ADDS - METARS form results

(2202 UTC 27 September 2020)
Data provider http://aviationweather.gov/metar/data/
 
Forecast for: VEBN (VARANASI , IN)
Text: TAF VEBN 271700Z 2718/2803 VRB02KT 3000 BR FEW02
Forecast period: 1800 to 2300 UTC 27 September 2020
Forecast type: FROM: standard forecast or significant change
Winds: variable direction winds at 2 MPH (2 knots; 1.0 m/s)
Visibility: 1.86 miles (2.99 km)
Ceiling: unknown
Clouds: missing
Weather: BR  (mist)
Text: BECMG 2723/2801 1500 BR
Forecast period: 2300 UTC 27 September 2020 to 0100 UTC 28 September 2020
Forecast type: BECOMING: Conditions expected to become as follows by 0100 UTC 28 September 2020
Winds: variable direction winds at 2 MPH (2 knots; 1.0 m/s)
Visibility: 0.93 miles (1.50 km)
Ceiling: unknown
Clouds: missing
Weather: BR  (mist)
Text: BECMG 2801/2803 0800 MIFG FG
Forecast period: 0100 to 0300 UTC 28 September 2020
Forecast type: BECOMING: Conditions expected to become as follows by 0300 UTC 28 September 2020
Winds: variable direction winds at 2 MPH (2 knots; 1.0 m/s)
Visibility: 0.50 miles (0.80 km)
Ceiling: unknown
Clouds: missing
Weather: MIFG FG  (shallow fog, fog)